createdAt,value
2023-04-17T00:04:06.862Z,40
2023-04-17T00:09:37.265Z,40
2023-04-17T00:15:07.751Z,40
2023-04-17T00:20:38.226Z,40
2023-04-17T00:26:08.854Z,40
2023-04-17T00:31:39.409Z,40
2023-04-17T00:37:09.929Z,40
2023-04-17T00:42:40.401Z,40
2023-04-17T00:48:10.869Z,40
2023-04-17T00:53:40.353Z,40
2023-04-17T00:59:11.108Z,40
2023-04-17T01:04:40.644Z,40
2023-04-17T01:10:10.792Z,40
2023-04-17T01:15:41.276Z,40
2023-04-17T01:21:10.752Z,40
2023-04-17T01:26:41.240Z,40
2023-04-17T01:32:11.741Z,40
2023-04-17T01:37:42.415Z,40
2023-04-17T01:43:12.893Z,40
2023-04-17T01:54:12.860Z,40.5
2023-04-17T01:59:43.330Z,40
2023-04-17T02:05:14.003Z,40.5
2023-04-17T02:10:44.407Z,40.5
2023-04-17T02:16:14.914Z,40.5
2023-04-17T02:21:45.479Z,40.5
2023-04-17T02:27:15.964Z,40.5
2023-04-17T02:32:46.474Z,40.5
2023-04-17T02:38:16.921Z,40.5
2023-04-17T02:43:47.502Z,40.5
2023-04-17T02:49:18.021Z,40
2023-04-17T02:54:48.598Z,40.5
2023-04-17T03:00:19.082Z,40.5
2023-04-17T03:05:49.567Z,40.5
2023-04-17T03:11:20.169Z,40.5
2023-04-17T03:16:50.803Z,40.5
2023-04-17T03:22:21.206Z,40.5
2023-04-17T03:27:51.832Z,40.5
2023-04-17T03:33:22.300Z,40.5
2023-04-17T03:38:52.788Z,40.5
2023-04-17T03:44:23.392Z,40.5
2023-04-17T03:49:53.861Z,40.5
2023-04-17T03:55:24.451Z,40.5
2023-04-17T04:00:54.897Z,40.5
2023-04-17T04:06:25.391Z,40.5
2023-04-17T04:11:56.012Z,40.5
2023-04-17T04:17:26.545Z,40.5
2023-04-17T04:22:56.973Z,40.5
2023-04-17T04:28:27.565Z,40.5
2023-04-17T04:33:58.182Z,40.5
2023-04-17T04:39:28.632Z,40.5
2023-04-17T04:44:59.121Z,40.5
2023-04-17T04:50:29.701Z,40.5
2023-04-17T04:56:00.200Z,40.5
2023-04-17T05:01:29.879Z,40.5
2023-04-17T05:07:00.159Z,40.5
2023-04-17T05:12:30.645Z,40
2023-04-17T05:18:00.192Z,40.5
2023-04-17T05:23:30.593Z,40
2023-04-17T05:29:01.080Z,40
2023-04-17T05:34:31.650Z,40
2023-04-17T05:40:02.157Z,40.5
2023-04-17T05:45:31.709Z,40.5
2023-04-17T05:51:02.130Z,40.5
2023-04-17T05:56:32.638Z,40.5
2023-04-17T06:02:03.285Z,40.5
2023-04-17T06:08:39.793Z,40.5
2023-04-17T06:14:10.671Z,40.5
2023-04-17T06:19:40.849Z,40.5
2023-04-17T06:25:11.377Z,40.5
2023-04-17T06:30:42.013Z,40.5
2023-04-17T06:36:12.485Z,40.5
2023-04-17T06:41:42.958Z,40.5
2023-04-17T06:47:13.564Z,40.5
2023-04-17T06:52:44.152Z,40.5
2023-04-17T06:58:14.616Z,40.5
2023-04-17T07:03:45.330Z,40.5
2023-04-17T07:09:15.688Z,40.5
2023-04-17T07:14:46.179Z,40.5
2023-04-17T07:20:16.756Z,40.5
2023-04-17T07:25:47.239Z,40.5
2023-04-17T07:31:17.881Z,40.5
2023-04-17T07:36:48.331Z,40.5
2023-04-17T07:42:18.812Z,40.5
2023-04-17T07:47:49.551Z,40.5
2023-04-17T07:53:19.977Z,40.5
2023-04-17T07:58:50.462Z,40.5
2023-04-17T08:04:20.119Z,40.5
2023-04-17T08:09:50.446Z,40
2023-04-17T08:15:21.030Z,40
2023-04-17T08:20:51.500Z,40
2023-04-17T08:26:22.066Z,40
2023-04-17T08:32:00.205Z,40
2023-04-17T08:37:23.152Z,40
2023-04-17T08:42:53.621Z,40
2023-04-17T08:48:24.241Z,40
2023-04-17T08:53:54.713Z,40
2023-04-17T08:59:25.326Z,40
2023-04-17T09:04:55.910Z,39.5
2023-04-17T09:10:26.277Z,39.5
2023-04-17T09:15:55.818Z,39.5
2023-04-17T09:21:26.256Z,39.5
2023-04-17T09:26:56.734Z,39.5
2023-04-17T09:32:26.257Z,39.5
2023-04-17T09:37:56.704Z,39.5
2023-04-17T09:43:27.179Z,39.5
2023-04-17T09:48:57.765Z,39.5
2023-04-17T09:54:28.247Z,39
2023-04-17T09:59:58.707Z,39
2023-04-17T10:05:29.402Z,39
2023-04-17T10:10:59.815Z,39
2023-04-17T10:16:30.281Z,39
2023-04-17T10:22:01.016Z,39
2023-04-17T10:27:31.474Z,39
2023-04-17T10:33:02.115Z,39
2023-04-17T10:38:32.571Z,39
2023-04-17T10:44:03.027Z,39
2023-04-17T10:49:33.643Z,38.5
2023-04-17T10:55:04.125Z,38.5
2023-04-17T11:00:34.591Z,38.5
2023-04-17T11:06:05.178Z,38.5
2023-04-17T11:17:06.328Z,38.5
2023-04-17T11:22:36.888Z,38.5
2023-04-17T11:28:07.391Z,38.5
2023-04-17T11:33:36.835Z,38.5
2023-04-17T11:39:07.340Z,38.5
2023-04-17T11:44:37.811Z,38.5
2023-04-17T11:50:08.366Z,38.5
2023-04-17T11:55:38.893Z,38.5
2023-04-17T12:01:08.373Z,38.5
2023-04-17T12:12:08.413Z,38.5
2023-04-17T12:17:38.869Z,38.5
2023-04-17T12:23:09.308Z,38.5
2023-04-17T12:28:38.818Z,38.5
2023-04-17T12:34:09.282Z,38.5
2023-04-17T12:39:39.765Z,38.5
2023-04-17T12:45:10.324Z,38.5
2023-04-17T12:50:40.802Z,38.5
2023-04-17T12:56:11.284Z,38.5
2023-04-17T13:01:40.902Z,38.5
2023-04-17T13:07:11.340Z,38.5
2023-04-17T13:12:41.955Z,38.5
2023-04-17T13:18:12.407Z,38.5
2023-04-17T13:23:42.905Z,39
2023-04-17T13:29:12.771Z,39
2023-04-17T13:34:42.850Z,39
2023-04-17T13:40:14.358Z,39
2023-04-17T13:45:42.851Z,39
2023-04-17T13:51:13.307Z,39
2023-04-17T13:56:42.775Z,39
2023-04-17T14:02:13.372Z,39
2023-04-17T14:07:44.013Z,38
2023-04-17T14:13:13.232Z,38.5
2023-04-17T14:24:14.209Z,38.5
2023-04-17T14:29:44.734Z,38.5
2023-04-17T14:35:15.332Z,38.5
2023-04-17T14:40:45.808Z,38.5
2023-04-17T14:46:16.823Z,38.5
2023-04-17T14:51:46.887Z,38.5
2023-04-17T14:57:17.476Z,38.5
2023-04-17T15:02:48.216Z,38.5
2023-04-17T15:08:18.510Z,38.5
2023-04-17T15:13:49.018Z,38.5
2023-04-17T15:19:19.587Z,38.5
2023-04-17T15:24:50.070Z,38.5
2023-04-17T15:30:19.556Z,38.5
2023-04-17T15:35:50.029Z,38.5
2023-04-17T15:41:19.514Z,34.5
2023-04-17T15:46:50.009Z,36.5
2023-04-17T15:52:20.601Z,37.5
2023-04-17T15:57:51.148Z,37.5
2023-04-17T16:03:21.827Z,37.5
2023-04-17T16:08:52.232Z,37.5
2023-04-17T16:14:22.736Z,37.5
2023-04-17T16:19:53.244Z,38
2023-04-17T16:25:23.768Z,38
2023-04-17T16:30:54.351Z,38
2023-04-17T16:36:24.866Z,38
2023-04-17T16:41:55.325Z,38
2023-04-17T16:47:25.817Z,38
2023-04-17T16:54:01.464Z,38
2023-04-17T16:59:32.014Z,38
2023-04-17T17:05:02.462Z,38
2023-04-17T17:10:33.045Z,38.5
2023-04-17T17:16:03.556Z,38
2023-04-17T17:21:33.984Z,38.5
2023-04-17T17:27:04.554Z,38.5
2023-04-17T17:32:35.223Z,38.5
2023-04-17T17:38:05.681Z,38.5
2023-04-17T17:43:36.246Z,38.5
2023-04-17T17:49:06.741Z,38.5
2023-04-17T17:54:37.347Z,38.5
2023-04-17T18:00:08.002Z,38.5
2023-04-17T18:05:38.363Z,38.5
2023-04-17T18:16:39.434Z,47
2023-04-17T18:22:09.907Z,44
2023-04-17T18:27:40.429Z,41
2023-04-17T18:33:11.010Z,39
2023-04-17T18:38:41.493Z,39
2023-04-17T18:44:12.311Z,39.5
2023-04-17T18:49:42.564Z,39.5
2023-04-17T18:55:13.124Z,38.5
2023-04-17T19:00:43.748Z,38.5
2023-04-17T19:06:14.218Z,38
2023-04-17T19:11:44.895Z,39
2023-04-17T19:17:15.271Z,39
2023-04-17T19:22:45.857Z,39.5
2023-04-17T19:28:16.341Z,39.5
2023-04-17T19:33:46.842Z,39.5
2023-04-17T19:39:17.403Z,39.5
2023-04-17T19:44:47.898Z,39.5
2023-04-17T19:50:18.429Z,39.5
2023-04-17T19:55:48.999Z,39.5
2023-04-17T20:01:19.485Z,39.5
2023-04-17T20:06:49.952Z,39.5
2023-04-17T20:12:19.439Z,39.5
2023-04-17T20:18:55.978Z,39.5
2023-04-17T20:24:26.599Z,39.5
2023-04-17T20:29:57.059Z,40
2023-04-17T20:35:27.645Z,40
2023-04-17T20:40:58.214Z,40
2023-04-17T20:46:28.740Z,40
2023-04-17T20:51:59.175Z,40
2023-04-17T20:57:29.770Z,40
2023-04-17T21:04:06.395Z,40
2023-04-17T21:09:36.938Z,40
2023-04-17T21:15:07.440Z,40
2023-04-17T21:20:37.880Z,40
2023-04-17T21:26:08.475Z,40
2023-04-17T21:31:39.055Z,40
2023-04-17T21:37:09.505Z,40
2023-04-17T21:42:40.092Z,40
2023-04-17T21:48:10.549Z,40
2023-04-17T21:53:41.145Z,40
2023-04-17T21:59:11.650Z,40
2023-04-17T22:04:42.155Z,40
2023-04-17T22:10:12.744Z,40
2023-04-17T22:15:43.207Z,40
2023-04-17T22:21:13.670Z,40
2023-04-17T22:26:44.301Z,40
2023-04-17T22:32:14.760Z,40
2023-04-17T22:37:45.251Z,40
2023-04-17T22:43:14.774Z,40.5
2023-04-17T22:48:45.245Z,40.5
2023-04-17T22:54:22.840Z,40.5
2023-04-17T22:59:46.346Z,40.5
2023-04-17T23:05:17.114Z,40.5
2023-04-17T23:10:47.370Z,40.5
2023-04-17T23:16:18.097Z,40.5
2023-04-17T23:21:48.455Z,40.5
2023-04-17T23:27:18.944Z,40.5
2023-04-17T23:32:49.463Z,40.5
2023-04-17T23:38:20.038Z,40.5
2023-04-17T23:43:50.517Z,40.5
2023-04-17T23:49:21.107Z,40.5
2023-04-17T23:54:51.602Z,40.5
